createdAt,value
2018-07-26T00:02:59.677Z,96.00
2018-07-26T00:08:03.807Z,96.10
2018-07-26T00:13:07.967Z,95.50
2018-07-26T00:18:12.043Z,95.60
2018-07-26T00:23:16.097Z,95.70
2018-07-26T00:28:20.190Z,95.50
2018-07-26T00:33:24.299Z,96.00
2018-07-26T00:43:32.175Z,96.30
2018-07-26T00:53:40.091Z,96.00
2018-07-26T00:58:44.438Z,96.30
2018-07-26T01:03:48.543Z,96.70
2018-07-26T01:08:52.631Z,96.70
2018-07-26T01:19:00.529Z,96.70
2018-07-26T01:29:08.393Z,96.70
2018-07-26T01:39:16.284Z,96.70
2018-07-26T01:44:23.443Z,97.00
2018-07-26T01:49:27.500Z,96.90
2018-07-26T01:54:31.578Z,96.70
2018-07-26T01:59:35.668Z,96.80
2018-07-26T02:09:43.547Z,96.60
2018-07-26T02:14:47.619Z,96.20
2018-07-26T02:19:51.722Z,96.40
2018-07-26T02:24:55.770Z,96.60
2018-07-26T02:35:03.632Z,96.50
2018-07-26T02:50:15.379Z,97.30
2018-07-26T02:55:19.431Z,97.40
2018-07-26T03:00:23.524Z,97.20
2018-07-26T03:05:27.567Z,97.30
2018-07-26T03:10:31.615Z,97.40
2018-07-26T03:15:35.723Z,97.50
2018-07-26T03:20:39.800Z,97.40
2018-07-26T03:25:44.119Z,97.00
2018-07-26T03:30:48.186Z,97.10
2018-07-26T03:40:56.062Z,97.50
2018-07-26T03:46:00.119Z,97.30
2018-07-26T03:51:04.176Z,97.50
2018-07-26T04:06:15.913Z,98.00
2018-07-26T04:11:20.050Z,98.00
2018-07-26T04:16:24.085Z,98.00
2018-07-26T04:21:28.133Z,98.00
2018-07-26T04:26:32.208Z,98.00
2018-07-26T04:31:36.248Z,97.90
2018-07-26T04:36:40.312Z,97.90
2018-07-26T04:46:48.183Z,97.70
2018-07-26T04:51:52.248Z,97.30
2018-07-26T04:56:56.300Z,96.60
2018-07-26T05:02:00.358Z,96.30
2018-07-26T05:07:04.413Z,96.30
2018-07-26T05:12:08.506Z,96.20
2018-07-26T05:17:12.526Z,96.30
2018-07-26T05:22:16.557Z,96.10
2018-07-26T05:32:24.490Z,96.00
2018-07-26T05:37:28.588Z,95.60
2018-07-26T05:42:32.617Z,95.50
2018-07-26T05:52:46.921Z,94.60
2018-07-26T06:02:54.803Z,93.10
2018-07-26T06:07:58.861Z,90.50
2018-07-26T06:23:10.602Z,82.90
2018-07-26T06:28:14.646Z,81.80
2018-07-26T06:33:18.716Z,78.10
2018-07-26T06:38:22.893Z,77.70
2018-07-26T06:43:26.931Z,75.20
2018-07-26T06:48:31.086Z,75.10
2018-07-26T06:58:38.993Z,73.00
2018-07-26T07:08:46.870Z,71.50
2018-07-26T07:13:50.939Z,69.80
2018-07-26T07:34:06.998Z,67.50
2018-07-26T07:39:12.827Z,64.90
2018-07-26T07:49:21.818Z,67.10
2018-07-26T07:54:25.862Z,64.30
2018-07-26T07:59:29.915Z,63.10
2018-07-26T08:09:37.807Z,57.70
2018-07-26T08:14:41.866Z,56.30
2018-07-26T08:19:45.909Z,54.50
2018-07-26T08:24:49.965Z,51.10
2018-07-26T08:29:54.029Z,50.80
2018-07-26T08:34:58.709Z,49.10
2018-07-26T08:45:06.891Z,48.00
2018-07-26T08:50:10.944Z,45.60
2018-07-26T08:55:15.007Z,44.50
2018-07-26T09:00:19.541Z,45.50
2018-07-26T09:05:23.589Z,44.70
2018-07-26T09:20:35.382Z,44.60
2018-07-26T09:25:39.454Z,42.60
2018-07-26T09:35:47.386Z,40.80
2018-07-26T09:45:55.224Z,41.00
2018-07-26T09:50:59.258Z,38.70
2018-07-26T10:01:12.637Z,37.40
2018-07-26T10:06:16.693Z,37.30
2018-07-26T10:16:25.030Z,39.40
2018-07-26T10:21:29.082Z,39.40
2018-07-26T10:26:33.118Z,39.90
2018-07-26T10:31:37.153Z,39.00
2018-07-26T10:36:41.242Z,40.10
2018-07-26T10:41:45.382Z,39.40
2018-07-26T10:46:49.417Z,41.00
2018-07-26T10:56:57.830Z,40.10
2018-07-26T11:07:05.755Z,40.70
2018-07-26T11:22:17.426Z,40.00
2018-07-26T11:42:33.198Z,39.70
2018-07-26T11:47:37.737Z,41.10
2018-07-26T11:57:45.585Z,40.60
2018-07-26T12:12:57.343Z,40.40
2018-07-26T12:18:01.390Z,38.70
2018-07-26T12:23:05.445Z,40.00
2018-07-26T12:33:13.278Z,39.50
2018-07-26T12:38:17.318Z,38.80
2018-07-26T12:43:21.360Z,39.90
2018-07-26T12:53:29.221Z,40.90
2018-07-26T12:58:33.290Z,39.90
2018-07-26T13:03:37.322Z,39.50
2018-07-26T13:08:41.403Z,36.70
2018-07-26T13:13:45.745Z,37.60
2018-07-26T13:18:49.766Z,38.80
2018-07-26T13:23:53.810Z,38.30
2018-07-26T13:28:57.869Z,38.00
2018-07-26T13:34:01.903Z,38.10
2018-07-26T13:39:11.514Z,38.40
2018-07-26T13:44:15.637Z,38.70
2018-07-26T13:49:19.666Z,39.40
2018-07-26T13:54:23.730Z,39.20
2018-07-26T13:59:27.795Z,39.20
2018-07-26T14:04:31.881Z,39.60
2018-07-26T14:14:39.805Z,39.20
2018-07-26T14:19:43.840Z,38.20
2018-07-26T14:24:47.878Z,35.10
2018-07-26T14:29:51.906Z,35.70
2018-07-26T14:34:55.982Z,35.10
2018-07-26T14:40:00.019Z,34.20
2018-07-26T14:50:08.421Z,35.80
2018-07-26T15:05:20.120Z,36.10
2018-07-26T15:30:39.610Z,34.00
2018-07-26T15:35:43.663Z,35.20
2018-07-26T15:40:47.805Z,33.40
2018-07-26T15:45:51.872Z,33.70
2018-07-26T15:50:55.927Z,33.50
2018-07-26T15:55:59.986Z,33.70
2018-07-26T16:01:04.008Z,33.90
2018-07-26T16:06:08.064Z,33.40
2018-07-26T16:11:12.154Z,33.50
2018-07-26T16:16:16.246Z,33.60
2018-07-26T16:21:20.571Z,32.40
2018-07-26T16:26:24.612Z,33.00
2018-07-26T16:31:28.648Z,32.20
2018-07-26T16:36:32.782Z,32.40
2018-07-26T16:41:36.882Z,33.20
2018-07-26T16:56:48.581Z,34.80
2018-07-26T17:06:56.479Z,37.90
2018-07-26T17:17:04.383Z,42.30
2018-07-26T17:32:16.164Z,45.80
2018-07-26T17:47:29.069Z,47.90
2018-07-26T17:52:33.230Z,47.30
2018-07-26T18:02:41.174Z,49.20
2018-07-26T18:07:45.220Z,50.10
2018-07-26T18:12:49.278Z,51.20
2018-07-26T18:17:53.418Z,52.00
2018-07-26T18:22:57.478Z,51.60
2018-07-26T18:28:01.566Z,52.70
2018-07-26T18:33:06.460Z,52.90
2018-07-26T18:38:10.606Z,54.70
2018-07-26T18:43:14.587Z,54.60
2018-07-26T18:53:22.471Z,59.60
2018-07-26T18:58:26.539Z,64.90
2018-07-26T19:03:30.581Z,63.90
2018-07-26T19:08:34.648Z,61.60
2018-07-26T19:13:38.705Z,61.70
2018-07-26T19:18:42.794Z,64.90
2018-07-26T19:23:46.848Z,65.50
2018-07-26T19:38:58.614Z,68.70
2018-07-26T20:04:48.734Z,73.30
2018-07-26T20:25:04.346Z,78.00
2018-07-26T20:35:13.045Z,79.40
2018-07-26T20:45:20.925Z,81.10
2018-07-26T20:55:28.907Z,82.00
2018-07-26T21:05:36.897Z,81.90
2018-07-26T21:10:41.002Z,83.50
2018-07-26T21:15:45.058Z,83.20
2018-07-26T21:20:49.112Z,83.60
2018-07-26T21:25:53.169Z,84.20
2018-07-26T21:30:57.254Z,85.90
2018-07-26T21:36:01.314Z,85.50
2018-07-26T21:41:05.400Z,86.30
2018-07-26T21:51:13.278Z,87.70
2018-07-26T22:06:25.137Z,90.00
2018-07-26T22:11:29.200Z,90.10
2018-07-26T22:16:33.307Z,90.30
2018-07-26T22:21:37.374Z,90.30
2018-07-26T22:26:41.442Z,90.70
2018-07-26T22:36:49.308Z,90.90
2018-07-26T22:41:53.365Z,90.90
2018-07-26T22:46:57.422Z,91.00
2018-07-26T22:52:01.478Z,90.90
2018-07-26T22:57:05.675Z,91.10
2018-07-26T23:02:09.827Z,90.90
2018-07-26T23:07:13.882Z,91.40
2018-07-26T23:12:18.012Z,91.30
2018-07-26T23:17:22.363Z,90.60
2018-07-26T23:22:26.662Z,90.60
2018-07-26T23:27:30.825Z,91.20
2018-07-26T23:32:35.052Z,90.70
2018-07-26T23:37:39.102Z,89.20
2018-07-26T23:42:43.276Z,87.50
2018-07-26T23:47:47.403Z,86.60
2018-07-26T23:52:51.498Z,84.90
2018-07-26T23:57:55.546Z,84.20
